Terminal Aerodrome Forecast
Issued by NWS

Home | Current Version | Previous Version | Text Only | Print | Product List | Glossary On
Versions: 1 2 3 4 5 6 7 8 9 10 11 12 13 14 15 16 17 18 19 20 21 22 23 24 25 26 27
000
FTUS46 KSEW 011100
TAFSEA
TAF
KSEA 011140Z 0112/0218 VRB03KT P6SM SCT025 SCT050 BKN200
      TEMPO 0114/0118 BKN025 OVC050
     FM011800 23006KT P6SM SCT035 SCT050 BKN200
     FM012000 25008KT P6SM SCT070 BKN200
     FM020100 32005KT P6SM BKN200
     FM020600 04005KT P6SM BKN200=

USA.gov is the U.S. government's official web portal to all federal, state and local government web resources and services.